sensor_id;sensor_type;location;lat;lon;timestamp;P1;durP1;ratioP1;P2;durP2;ratioP2
12308;SDS011;6217;48.150;17.142;2023-07-09T00:02:24;5.82;;;3.92;;
12308;SDS011;6217;48.150;17.142;2023-07-09T00:06:31;12.18;;;4.30;;
12308;SDS011;6217;48.150;17.142;2023-07-09T00:10:37;5.88;;;3.78;;
12308;SDS011;6217;48.150;17.142;2023-07-09T00:14:46;4.28;;;3.65;;
12308;SDS011;6217;48.150;17.142;2023-07-09T00:18:53;8.75;;;4.20;;
12308;SDS011;6217;48.150;17.142;2023-07-09T00:22:59;8.15;;;3.67;;
12308;SDS011;6217;48.150;17.142;2023-07-09T00:27:08;6.03;;;3.42;;
12308;SDS011;6217;48.150;17.142;2023-07-09T00:31:15;9.20;;;4.10;;
12308;SDS011;6217;48.150;17.142;2023-07-09T00:35:21;7.03;;;4.25;;
12308;SDS011;6217;48.150;17.142;2023-07-09T00:39:28;10.70;;;6.18;;
12308;SDS011;6217;48.150;17.142;2023-07-09T00:43:35;8.20;;;6.28;;
12308;SDS011;6217;48.150;17.142;2023-07-09T00:47:47;9.63;;;6.53;;
12308;SDS011;6217;48.150;17.142;2023-07-09T00:52:20;9.38;;;8.40;;
12308;SDS011;6217;48.150;17.142;2023-07-09T00:56:40;16.92;;;15.13;;
12308;SDS011;6217;48.150;17.142;2023-07-09T01:00:52;14.95;;;13.32;;
12308;SDS011;6217;48.150;17.142;2023-07-09T01:05:04;12.02;;;9.73;;
12308;SDS011;6217;48.150;17.142;2023-07-09T01:09:17;8.65;;;7.75;;
12308;SDS011;6217;48.150;17.142;2023-07-09T01:13:24;7.38;;;6.53;;
12308;SDS011;6217;48.150;17.142;2023-07-09T01:17:37;8.05;;;6.18;;
12308;SDS011;6217;48.150;17.142;2023-07-09T01:21:43;8.63;;;5.65;;
12308;SDS011;6217;48.150;17.142;2023-07-09T01:25:51;8.10;;;5.78;;
12308;SDS011;6217;48.150;17.142;2023-07-09T01:30:00;5.93;;;4.07;;
12308;SDS011;6217;48.150;17.142;2023-07-09T01:34:11;6.22;;;3.67;;
12308;SDS011;6217;48.150;17.142;2023-07-09T01:38:17;4.35;;;3.67;;
12308;SDS011;6217;48.150;17.142;2023-07-09T01:42:24;7.78;;;3.90;;
12308;SDS011;6217;48.150;17.142;2023-07-09T01:46:32;5.68;;;3.53;;
12308;SDS011;6217;48.150;17.142;2023-07-09T01:50:38;6.75;;;3.30;;
12308;SDS011;6217;48.150;17.142;2023-07-09T01:54:48;4.90;;;2.90;;
12308;SDS011;6217;48.150;17.142;2023-07-09T01:58:55;9.35;;;3.85;;
12308;SDS011;6217;48.150;17.142;2023-07-09T02:03:06;6.28;;;3.35;;
12308;SDS011;6217;48.150;17.142;2023-07-09T02:07:12;10.65;;;3.50;;
12308;SDS011;6217;48.150;17.142;2023-07-09T02:11:19;3.38;;;2.70;;
12308;SDS011;6217;48.150;17.142;2023-07-09T02:15:25;6.97;;;3.17;;
12308;SDS011;6217;48.150;17.142;2023-07-09T02:19:31;8.52;;;3.00;;
12308;SDS011;6217;48.150;17.142;2023-07-09T02:23:37;5.28;;;2.42;;
12308;SDS011;6217;48.150;17.142;2023-07-09T02:27:44;3.22;;;2.80;;
12308;SDS011;6217;48.150;17.142;2023-07-09T02:31:50;10.93;;;2.67;;
12308;SDS011;6217;48.150;17.142;2023-07-09T02:36:01;4.90;;;2.28;;
12308;SDS011;6217;48.150;17.142;2023-07-09T02:40:07;5.00;;;2.83;;
12308;SDS011;6217;48.150;17.142;2023-07-09T02:44:15;2.92;;;2.67;;
12308;SDS011;6217;48.150;17.142;2023-07-09T02:48:23;5.68;;;2.40;;
12308;SDS011;6217;48.150;17.142;2023-07-09T02:52:29;3.67;;;2.92;;
12308;SDS011;6217;48.150;17.142;2023-07-09T02:56:36;4.35;;;3.92;;
12308;SDS011;6217;48.150;17.142;2023-07-09T03:00:42;5.40;;;2.80;;
12308;SDS011;6217;48.150;17.142;2023-07-09T03:04:48;4.38;;;3.80;;
12308;SDS011;6217;48.150;17.142;2023-07-09T03:08:54;4.97;;;4.45;;
12308;SDS011;6217;48.150;17.142;2023-07-09T03:13:00;7.13;;;6.45;;
12308;SDS011;6217;48.150;17.142;2023-07-09T03:17:06;7.82;;;7.00;;
12308;SDS011;6217;48.150;17.142;2023-07-09T03:21:12;8.60;;;7.70;;
12308;SDS011;6217;48.150;17.142;2023-07-09T03:25:18;8.55;;;7.55;;
12308;SDS011;6217;48.150;17.142;2023-07-09T03:29:24;9.77;;;7.82;;
12308;SDS011;6217;48.150;17.142;2023-07-09T03:33:31;9.60;;;8.60;;
12308;SDS011;6217;48.150;17.142;2023-07-09T03:37:36;8.98;;;8.05;;
12308;SDS011;6217;48.150;17.142;2023-07-09T03:41:43;9.23;;;8.13;;
12308;SDS011;6217;48.150;17.142;2023-07-09T03:45:49;8.80;;;7.80;;
12308;SDS011;6217;48.150;17.142;2023-07-09T03:49:56;12.02;;;8.85;;
12308;SDS011;6217;48.150;17.142;2023-07-09T03:54:02;8.93;;;8.10;;
12308;SDS011;6217;48.150;17.142;2023-07-09T03:58:09;9.73;;;7.55;;
12308;SDS011;6217;48.150;17.142;2023-07-09T04:02:15;7.45;;;6.47;;
12308;SDS011;6217;48.150;17.142;2023-07-09T04:06:20;9.10;;;7.80;;
12308;SDS011;6217;48.150;17.142;2023-07-09T04:10:27;10.48;;;8.10;;
12308;SDS011;6217;48.150;17.142;2023-07-09T04:14:34;8.07;;;7.43;;
12308;SDS011;6217;48.150;17.142;2023-07-09T04:18:40;10.23;;;9.02;;
12308;SDS011;6217;48.150;17.142;2023-07-09T04:22:46;10.70;;;9.02;;
12308;SDS011;6217;48.150;17.142;2023-07-09T04:26:52;12.63;;;8.55;;
12308;SDS011;6217;48.150;17.142;2023-07-09T04:31:01;8.85;;;7.95;;
12308;SDS011;6217;48.150;17.142;2023-07-09T04:35:08;8.43;;;7.60;;
12308;SDS011;6217;48.150;17.142;2023-07-09T04:39:16;8.52;;;7.10;;
12308;SDS011;6217;48.150;17.142;2023-07-09T04:43:22;8.43;;;6.93;;
12308;SDS011;6217;48.150;17.142;2023-07-09T04:47:28;10.13;;;6.32;;
12308;SDS011;6217;48.150;17.142;2023-07-09T04:51:34;6.90;;;5.80;;
12308;SDS011;6217;48.150;17.142;2023-07-09T04:55:40;8.15;;;6.18;;
12308;SDS011;6217;48.150;17.142;2023-07-09T04:59:46;5.80;;;5.40;;
12308;SDS011;6217;48.150;17.142;2023-07-09T05:03:52;4.30;;;3.80;;
12308;SDS011;6217;48.150;17.142;2023-07-09T05:08:00;4.05;;;2.90;;
12308;SDS011;6217;48.150;17.142;2023-07-09T05:12:06;4.35;;;2.60;;
12308;SDS011;6217;48.150;17.142;2023-07-09T05:20:30;7.18;;;3.00;;
12308;SDS011;6217;48.150;17.142;2023-07-09T05:24:36;4.40;;;3.08;;
12308;SDS011;6217;48.150;17.142;2023-07-09T05:28:42;6.97;;;3.08;;
12308;SDS011;6217;48.150;17.142;2023-07-09T05:32:48;12.57;;;5.10;;
12308;SDS011;6217;48.150;17.142;2023-07-09T05:36:54;6.97;;;2.80;;
12308;SDS011;6217;48.150;17.142;2023-07-09T05:41:02;4.22;;;2.90;;
12308;SDS011;6217;48.150;17.142;2023-07-09T05:45:09;4.47;;;2.78;;
12308;SDS011;6217;48.150;17.142;2023-07-09T05:49:16;5.97;;;2.42;;
12308;SDS011;6217;48.150;17.142;2023-07-09T05:53:23;5.53;;;2.70;;
12308;SDS011;6217;48.150;17.142;2023-07-09T05:57:29;2.92;;;2.20;;
12308;SDS011;6217;48.150;17.142;2023-07-09T06:01:35;5.88;;;2.78;;
12308;SDS011;6217;48.150;17.142;2023-07-09T06:10:13;4.30;;;2.63;;
12308;SDS011;6217;48.150;17.142;2023-07-09T06:14:22;4.05;;;2.58;;
12308;SDS011;6217;48.150;17.142;2023-07-09T06:18:28;3.97;;;2.58;;
12308;SDS011;6217;48.150;17.142;2023-07-09T06:22:36;4.03;;;2.50;;
12308;SDS011;6217;48.150;17.142;2023-07-09T06:26:43;7.55;;;2.38;;
12308;SDS011;6217;48.150;17.142;2023-07-09T06:30:53;6.57;;;2.70;;
12308;SDS011;6217;48.150;17.142;2023-07-09T06:34:59;8.15;;;3.08;;
12308;SDS011;6217;48.150;17.142;2023-07-09T06:39:05;4.13;;;2.55;;
12308;SDS011;6217;48.150;17.142;2023-07-09T06:43:11;3.47;;;2.88;;
12308;SDS011;6217;48.150;17.142;2023-07-09T06:47:19;3.95;;;2.30;;
12308;SDS011;6217;48.150;17.142;2023-07-09T06:51:25;7.80;;;2.25;;
12308;SDS011;6217;48.150;17.142;2023-07-09T06:55:34;3.30;;;2.30;;
12308;SDS011;6217;48.150;17.142;2023-07-09T06:59:41;2.22;;;1.92;;
12308;SDS011;6217;48.150;17.142;2023-07-09T07:03:47;5.78;;;2.25;;
12308;SDS011;6217;48.150;17.142;2023-07-09T07:07:55;2.88;;;2.28;;
12308;SDS011;6217;48.150;17.142;2023-07-09T07:12:02;7.05;;;2.50;;
12308;SDS011;6217;48.150;17.142;2023-07-09T07:16:10;6.25;;;2.95;;
12308;SDS011;6217;48.150;17.142;2023-07-09T07:20:18;2.47;;;2.28;;
12308;SDS011;6217;48.150;17.142;2023-07-09T07:24:27;4.97;;;2.60;;
12308;SDS011;6217;48.150;17.142;2023-07-09T07:29:44;4.53;;;2.38;;
12308;SDS011;6217;48.150;17.142;2023-07-09T07:33:50;2.60;;;2.10;;
12308;SDS011;6217;48.150;17.142;2023-07-09T07:38:57;3.55;;;2.60;;
12308;SDS011;6217;48.150;17.142;2023-07-09T07:42:54;2.67;;;2.40;;
12308;SDS011;6217;48.150;17.142;2023-07-09T07:47:00;3.42;;;2.72;;
12308;SDS011;6217;48.150;17.142;2023-07-09T07:51:06;3.08;;;2.20;;
12308;SDS011;6217;48.150;17.142;2023-07-09T07:55:13;3.60;;;2.38;;
12308;SDS011;6217;48.150;17.142;2023-07-09T07:59:19;6.50;;;3.47;;
12308;SDS011;6217;48.150;17.142;2023-07-09T08:03:25;4.60;;;2.63;;
12308;SDS011;6217;48.150;17.142;2023-07-09T08:07:32;4.82;;;2.90;;
12308;SDS011;6217;48.150;17.142;2023-07-09T08:11:38;3.00;;;2.70;;
12308;SDS011;6217;48.150;17.142;2023-07-09T08:15:44;3.72;;;2.85;;
12308;SDS011;6217;48.150;17.142;2023-07-09T08:24:23;4.68;;;2.85;;
12308;SDS011;6217;48.150;17.142;2023-07-09T08:28:31;6.35;;;2.63;;
12308;SDS011;6217;48.150;17.142;2023-07-09T08:32:57;3.17;;;2.50;;
12308;SDS011;6217;48.150;17.142;2023-07-09T08:37:05;5.30;;;3.00;;
12308;SDS011;6217;48.150;17.142;2023-07-09T08:41:35;7.28;;;2.88;;
12308;SDS011;6217;48.150;17.142;2023-07-09T08:49:59;6.13;;;2.90;;
12308;SDS011;6217;48.150;17.142;2023-07-09T08:59:12;4.47;;;3.10;;
12308;SDS011;6217;48.150;17.142;2023-07-09T09:03:41;5.13;;;3.08;;
12308;SDS011;6217;48.150;17.142;2023-07-09T09:22:40;4.82;;;2.70;;
12308;SDS011;6217;48.150;17.142;2023-07-09T09:26:59;8.00;;;3.08;;
12308;SDS011;6217;48.150;17.142;2023-07-09T09:31:07;4.25;;;3.05;;
12308;SDS011;6217;48.150;17.142;2023-07-09T09:35:17;4.53;;;1.95;;
12308;SDS011;6217;48.150;17.142;2023-07-09T09:39:26;1.92;;;1.70;;
12308;SDS011;6217;48.150;17.142;2023-07-09T09:43:32;3.85;;;2.00;;
12308;SDS011;6217;48.150;17.142;2023-07-09T09:47:39;2.83;;;2.05;;
12308;SDS011;6217;48.150;17.142;2023-07-09T09:51:48;4.65;;;2.55;;
12308;SDS011;6217;48.150;17.142;2023-07-09T09:55:55;9.50;;;2.70;;
12308;SDS011;6217;48.150;17.142;2023-07-09T10:00:02;3.08;;;2.00;;
12308;SDS011;6217;48.150;17.142;2023-07-09T10:04:19;3.88;;;2.30;;
12308;SDS011;6217;48.150;17.142;2023-07-09T10:08:46;4.70;;;2.20;;
12308;SDS011;6217;48.150;17.142;2023-07-09T10:13:15;3.25;;;2.33;;
12308;SDS011;6217;48.150;17.142;2023-07-09T10:22:55;5.13;;;2.13;;
12308;SDS011;6217;48.150;17.142;2023-07-09T10:40:56;3.85;;;2.28;;
12308;SDS011;6217;48.150;17.142;2023-07-09T10:45:09;2.50;;;2.20;;
12308;SDS011;6217;48.150;17.142;2023-07-09T11:00:34;2.75;;;2.00;;
12308;SDS011;6217;48.150;17.142;2023-07-09T11:04:47;3.33;;;1.70;;
12308;SDS011;6217;48.150;17.142;2023-07-09T11:08:58;3.03;;;2.08;;
12308;SDS011;6217;48.150;17.142;2023-07-09T11:13:24;2.22;;;1.83;;
12308;SDS011;6217;48.150;17.142;2023-07-09T11:18:07;4.32;;;2.35;;
12308;SDS011;6217;48.150;17.142;2023-07-09T11:22:36;2.42;;;1.90;;
12308;SDS011;6217;48.150;17.142;2023-07-09T11:27:00;1.92;;;1.80;;
12308;SDS011;6217;48.150;17.142;2023-07-09T11:31:07;7.72;;;2.97;;
12308;SDS011;6217;48.150;17.142;2023-07-09T11:35:23;3.20;;;2.08;;
12308;SDS011;6217;48.150;17.142;2023-07-09T11:43:52;2.25;;;1.90;;
12308;SDS011;6217;48.150;17.142;2023-07-09T11:48:05;2.28;;;1.65;;
12308;SDS011;6217;48.150;17.142;2023-07-09T11:52:48;4.35;;;1.65;;
12308;SDS011;6217;48.150;17.142;2023-07-09T12:02:03;3.00;;;2.00;;
12308;SDS011;6217;48.150;17.142;2023-07-09T12:06:20;3.47;;;1.88;;
12308;SDS011;6217;48.150;17.142;2023-07-09T12:10:34;2.13;;;1.92;;
12308;SDS011;6217;48.150;17.142;2023-07-09T12:15:04;2.42;;;2.20;;
12308;SDS011;6217;48.150;17.142;2023-07-09T12:19:43;2.58;;;2.00;;
12308;SDS011;6217;48.150;17.142;2023-07-09T12:30:17;2.85;;;1.98;;
12308;SDS011;6217;48.150;17.142;2023-07-09T12:34:24;5.10;;;1.85;;
12308;SDS011;6217;48.150;17.142;2023-07-09T12:38:33;5.43;;;2.20;;
12308;SDS011;6217;48.150;17.142;2023-07-09T12:48:16;2.20;;;2.00;;
12308;SDS011;6217;48.150;17.142;2023-07-09T12:57:29;1.90;;;1.80;;
12308;SDS011;6217;48.150;17.142;2023-07-09T13:02:28;2.08;;;1.70;;
12308;SDS011;6217;48.150;17.142;2023-07-09T13:06:29;2.63;;;2.17;;
12308;SDS011;6217;48.150;17.142;2023-07-09T13:15:42;4.40;;;2.58;;
12308;SDS011;6217;48.150;17.142;2023-07-09T13:20:12;2.30;;;1.67;;
12308;SDS011;6217;48.150;17.142;2023-07-09T13:24:43;3.78;;;1.60;;
12308;SDS011;6217;48.150;17.142;2023-07-09T13:28:53;2.50;;;1.90;;
12308;SDS011;6217;48.150;17.142;2023-07-09T13:32:59;1.90;;;1.60;;
12308;SDS011;6217;48.150;17.142;2023-07-09T13:37:06;2.47;;;1.77;;
12308;SDS011;6217;48.150;17.142;2023-07-09T13:41:33;5.28;;;4.60;;
12308;SDS011;6217;48.150;17.142;2023-07-09T13:45:59;3.50;;;1.70;;
12308;SDS011;6217;48.150;17.142;2023-07-09T13:50:14;1.77;;;1.67;;
12308;SDS011;6217;48.150;17.142;2023-07-09T13:54:28;2.55;;;2.13;;
12308;SDS011;6217;48.150;17.142;2023-07-09T13:58:40;2.08;;;1.88;;
12308;SDS011;6217;48.150;17.142;2023-07-09T14:02:46;2.28;;;1.80;;
12308;SDS011;6217;48.150;17.142;2023-07-09T14:07:40;5.97;;;2.03;;
12308;SDS011;6217;48.150;17.142;2023-07-09T14:18:04;3.65;;;1.90;;
12308;SDS011;6217;48.150;17.142;2023-07-09T14:23:01;6.07;;;1.90;;
12308;SDS011;6217;48.150;17.142;2023-07-09T14:27:10;5.03;;;1.80;;
12308;SDS011;6217;48.150;17.142;2023-07-09T14:35:37;2.08;;;1.88;;
12308;SDS011;6217;48.150;17.142;2023-07-09T14:39:52;2.42;;;1.92;;
12308;SDS011;6217;48.150;17.142;2023-07-09T14:44:01;2.20;;;1.73;;
12308;SDS011;6217;48.150;17.142;2023-07-09T14:48:12;2.20;;;1.70;;
12308;SDS011;6217;48.150;17.142;2023-07-09T14:52:23;2.97;;;1.98;;
12308;SDS011;6217;48.150;17.142;2023-07-09T14:56:35;4.32;;;1.70;;
12308;SDS011;6217;48.150;17.142;2023-07-09T15:00:42;2.92;;;2.03;;
12308;SDS011;6217;48.150;17.142;2023-07-09T15:05:01;3.67;;;1.90;;
12308;SDS011;6217;48.150;17.142;2023-07-09T15:09:09;2.05;;;1.75;;
12308;SDS011;6217;48.150;17.142;2023-07-09T15:13:29;3.78;;;1.88;;
12308;SDS011;6217;48.150;17.142;2023-07-09T15:17:39;2.33;;;1.83;;
12308;SDS011;6217;48.150;17.142;2023-07-09T15:21:45;3.85;;;2.08;;
12308;SDS011;6217;48.150;17.142;2023-07-09T15:25:56;7.97;;;2.00;;
12308;SDS011;6217;48.150;17.142;2023-07-09T15:30:10;2.00;;;1.80;;
12308;SDS011;6217;48.150;17.142;2023-07-09T15:34:25;4.22;;;1.63;;
12308;SDS011;6217;48.150;17.142;2023-07-09T15:38:31;3.40;;;1.73;;
12308;SDS011;6217;48.150;17.142;2023-07-09T15:42:40;4.30;;;1.80;;
12308;SDS011;6217;48.150;17.142;2023-07-09T15:46:47;2.20;;;2.00;;
12308;SDS011;6217;48.150;17.142;2023-07-09T15:50:59;5.15;;;2.50;;
12308;SDS011;6217;48.150;17.142;2023-07-09T15:55:20;3.50;;;1.70;;
12308;SDS011;6217;48.150;17.142;2023-07-09T15:59:32;2.30;;;2.10;;
12308;SDS011;6217;48.150;17.142;2023-07-09T16:03:43;3.45;;;1.60;;
12308;SDS011;6217;48.150;17.142;2023-07-09T16:07:58;2.72;;;2.00;;
12308;SDS011;6217;48.150;17.142;2023-07-09T16:12:10;12.55;;;1.73;;
12308;SDS011;6217;48.150;17.142;2023-07-09T16:16:24;4.43;;;1.85;;
12308;SDS011;6217;48.150;17.142;2023-07-09T16:20:31;2.80;;;2.00;;
12308;SDS011;6217;48.150;17.142;2023-07-09T16:24:41;3.40;;;1.77;;
12308;SDS011;6217;48.150;17.142;2023-07-09T16:28:47;2.08;;;1.60;;
12308;SDS011;6217;48.150;17.142;2023-07-09T16:32:55;3.30;;;1.83;;
12308;SDS011;6217;48.150;17.142;2023-07-09T16:37:02;3.55;;;1.63;;
12308;SDS011;6217;48.150;17.142;2023-07-09T16:41:25;6.63;;;1.80;;
12308;SDS011;6217;48.150;17.142;2023-07-09T16:45:32;4.05;;;1.67;;
12308;SDS011;6217;48.150;17.142;2023-07-09T16:49:39;9.02;;;1.92;;
12308;SDS011;6217;48.150;17.142;2023-07-09T16:53:49;3.88;;;2.00;;
12308;SDS011;6217;48.150;17.142;2023-07-09T16:57:56;3.72;;;2.05;;
12308;SDS011;6217;48.150;17.142;2023-07-09T17:02:09;7.97;;;1.73;;
12308;SDS011;6217;48.150;17.142;2023-07-09T17:06:36;3.97;;;1.90;;
12308;SDS011;6217;48.150;17.142;2023-07-09T17:10:42;1.92;;;1.67;;
12308;SDS011;6217;48.150;17.142;2023-07-09T17:14:49;2.58;;;1.55;;
12308;SDS011;6217;48.150;17.142;2023-07-09T17:18:55;2.13;;;1.75;;
12308;SDS011;6217;48.150;17.142;2023-07-09T17:23:01;2.58;;;1.98;;
12308;SDS011;6217;48.150;17.142;2023-07-09T17:27:08;4.07;;;2.00;;
12308;SDS011;6217;48.150;17.142;2023-07-09T17:31:15;4.63;;;2.08;;
12308;SDS011;6217;48.150;17.142;2023-07-09T17:35:22;3.75;;;2.03;;
12308;SDS011;6217;48.150;17.142;2023-07-09T17:39:28;4.07;;;1.90;;
12308;SDS011;6217;48.150;17.142;2023-07-09T17:43:34;3.90;;;1.92;;
12308;SDS011;6217;48.150;17.142;2023-07-09T17:47:43;2.33;;;1.92;;
12308;SDS011;6217;48.150;17.142;2023-07-09T17:51:49;3.97;;;1.75;;
12308;SDS011;6217;48.150;17.142;2023-07-09T18:02:28;3.95;;;1.90;;
12308;SDS011;6217;48.150;17.142;2023-07-09T18:06:50;4.47;;;2.08;;
12308;SDS011;6217;48.150;17.142;2023-07-09T18:10:57;2.95;;;1.95;;
12308;SDS011;6217;48.150;17.142;2023-07-09T18:15:08;2.35;;;2.03;;
12308;SDS011;6217;48.150;17.142;2023-07-09T18:19:28;3.20;;;1.80;;
12308;SDS011;6217;48.150;17.142;2023-07-09T18:23:34;4.15;;;2.00;;
12308;SDS011;6217;48.150;17.142;2023-07-09T18:27:42;3.78;;;2.20;;
12308;SDS011;6217;48.150;17.142;2023-07-09T18:31:51;3.55;;;2.83;;
12308;SDS011;6217;48.150;17.142;2023-07-09T18:35:57;6.03;;;2.03;;
12308;SDS011;6217;48.150;17.142;2023-07-09T18:40:03;5.22;;;2.10;;
12308;SDS011;6217;48.150;17.142;2023-07-09T18:44:14;2.58;;;2.38;;
12308;SDS011;6217;48.150;17.142;2023-07-09T18:48:26;3.38;;;2.40;;
12308;SDS011;6217;48.150;17.142;2023-07-09T18:53:16;10.75;;;2.30;;
12308;SDS011;6217;48.150;17.142;2023-07-09T18:57:36;4.20;;;2.83;;
12308;SDS011;6217;48.150;17.142;2023-07-09T19:06:03;3.00;;;2.33;;
12308;SDS011;6217;48.150;17.142;2023-07-09T19:10:29;3.40;;;2.60;;
12308;SDS011;6217;48.150;17.142;2023-07-09T19:14:36;4.03;;;2.88;;
12308;SDS011;6217;48.150;17.142;2023-07-09T19:18:43;8.13;;;2.67;;
12308;SDS011;6217;48.150;17.142;2023-07-09T19:22:54;3.40;;;2.92;;
12308;SDS011;6217;48.150;17.142;2023-07-09T19:27:04;11.73;;;3.35;;
12308;SDS011;6217;48.150;17.142;2023-07-09T19:31:11;5.40;;;2.42;;
12308;SDS011;6217;48.150;17.142;2023-07-09T19:41:01;5.38;;;2.40;;
12308;SDS011;6217;48.150;17.142;2023-07-09T19:45:15;10.60;;;2.92;;
12308;SDS011;6217;48.150;17.142;2023-07-09T19:49:31;4.93;;;3.22;;
12308;SDS011;6217;48.150;17.142;2023-07-09T19:53:37;5.35;;;2.70;;
12308;SDS011;6217;48.150;17.142;2023-07-09T19:57:43;10.35;;;3.40;;
12308;SDS011;6217;48.150;17.142;2023-07-09T20:01:50;5.22;;;2.78;;
12308;SDS011;6217;48.150;17.142;2023-07-09T20:05:57;5.68;;;3.20;;
12308;SDS011;6217;48.150;17.142;2023-07-09T20:10:04;6.47;;;3.60;;
12308;SDS011;6217;48.150;17.142;2023-07-09T20:14:14;8.25;;;3.22;;
12308;SDS011;6217;48.150;17.142;2023-07-09T20:18:36;3.95;;;2.90;;
12308;SDS011;6217;48.150;17.142;2023-07-09T20:22:41;3.47;;;2.85;;
12308;SDS011;6217;48.150;17.142;2023-07-09T20:26:48;6.07;;;2.85;;
12308;SDS011;6217;48.150;17.142;2023-07-09T20:30:55;7.82;;;3.55;;
12308;SDS011;6217;48.150;17.142;2023-07-09T20:35:02;8.60;;;3.10;;
12308;SDS011;6217;48.150;17.142;2023-07-09T20:39:19;9.20;;;3.75;;
12308;SDS011;6217;48.150;17.142;2023-07-09T20:43:28;8.53;;;3.47;;
12308;SDS011;6217;48.150;17.142;2023-07-09T20:47:40;7.20;;;3.80;;
12308;SDS011;6217;48.150;17.142;2023-07-09T20:51:46;17.10;;;5.40;;
12308;SDS011;6217;48.150;17.142;2023-07-09T20:55:54;5.25;;;3.83;;
12308;SDS011;6217;48.150;17.142;2023-07-09T21:00:08;10.25;;;4.00;;
12308;SDS011;6217;48.150;17.142;2023-07-09T21:04:25;8.73;;;4.07;;
12308;SDS011;6217;48.150;17.142;2023-07-09T21:08:32;8.52;;;5.00;;
12308;SDS011;6217;48.150;17.142;2023-07-09T21:12:38;6.53;;;5.10;;
12308;SDS011;6217;48.150;17.142;2023-07-09T21:16:46;7.43;;;5.25;;
12308;SDS011;6217;48.150;17.142;2023-07-09T21:20:54;10.52;;;7.00;;
12308;SDS011;6217;48.150;17.142;2023-07-09T21:25:01;11.18;;;7.50;;
12308;SDS011;6217;48.150;17.142;2023-07-09T21:29:24;8.55;;;7.68;;
12308;SDS011;6217;48.150;17.142;2023-07-09T21:33:32;8.25;;;7.35;;
12308;SDS011;6217;48.150;17.142;2023-07-09T21:37:38;8.02;;;7.07;;
12308;SDS011;6217;48.150;17.142;2023-07-09T21:42:10;10.48;;;7.30;;
12308;SDS011;6217;48.150;17.142;2023-07-09T21:46:50;10.73;;;7.13;;
12308;SDS011;6217;48.150;17.142;2023-07-09T21:51:09;10.25;;;7.63;;
12308;SDS011;6217;48.150;17.142;2023-07-09T21:55:20;11.95;;;9.70;;
12308;SDS011;6217;48.150;17.142;2023-07-09T21:59:37;12.95;;;11.75;;
12308;SDS011;6217;48.150;17.142;2023-07-09T22:03:49;12.93;;;11.52;;
12308;SDS011;6217;48.150;17.142;2023-07-09T22:13:01;13.82;;;11.98;;
12308;SDS011;6217;48.150;17.142;2023-07-09T22:17:34;13.60;;;11.00;;
12308;SDS011;6217;48.150;17.142;2023-07-09T22:21:41;14.10;;;9.20;;
12308;SDS011;6217;48.150;17.142;2023-07-09T22:25:55;14.68;;;9.40;;
12308;SDS011;6217;48.150;17.142;2023-07-09T22:30:04;9.88;;;6.60;;
12308;SDS011;6217;48.150;17.142;2023-07-09T22:34:20;8.23;;;5.70;;
12308;SDS011;6217;48.150;17.142;2023-07-09T22:38:33;9.05;;;5.65;;
12308;SDS011;6217;48.150;17.142;2023-07-09T22:42:39;11.60;;;6.03;;
12308;SDS011;6217;48.150;17.142;2023-07-09T22:46:57;6.85;;;5.88;;
12308;SDS011;6217;48.150;17.142;2023-07-09T22:51:10;6.93;;;5.22;;
12308;SDS011;6217;48.150;17.142;2023-07-09T22:55:27;8.82;;;5.43;;
12308;SDS011;6217;48.150;17.142;2023-07-09T22:59:44;9.63;;;5.18;;
12308;SDS011;6217;48.150;17.142;2023-07-09T23:03:50;6.20;;;4.82;;
12308;SDS011;6217;48.150;17.142;2023-07-09T23:07:58;17.58;;;5.35;;
12308;SDS011;6217;48.150;17.142;2023-07-09T23:12:04;7.65;;;4.45;;
12308;SDS011;6217;48.150;17.142;2023-07-09T23:16:20;9.10;;;4.63;;
12308;SDS011;6217;48.150;17.142;2023-07-09T23:20:29;5.63;;;4.57;;
12308;SDS011;6217;48.150;17.142;2023-07-09T23:24:35;8.30;;;5.53;;
12308;SDS011;6217;48.150;17.142;2023-07-09T23:28:41;9.55;;;5.38;;
12308;SDS011;6217;48.150;17.142;2023-07-09T23:32:47;10.65;;;4.95;;
12308;SDS011;6217;48.150;17.142;2023-07-09T23:36:53;5.43;;;4.00;;
12308;SDS011;6217;48.150;17.142;2023-07-09T23:41:02;5.15;;;4.22;;
12308;SDS011;6217;48.150;17.142;2023-07-09T23:45:23;6.25;;;3.85;;
12308;SDS011;6217;48.150;17.142;2023-07-09T23:49:29;7.35;;;4.63;;
12308;SDS011;6217;48.150;17.142;2023-07-09T23:53:35;6.85;;;4.45;;
12308;SDS011;6217;48.150;17.142;2023-07-09T23:57:49;9.50;;;4.30;;
